Impacts TAF Board INFO
FOR SITUATIONAL AWARENESS. NOT TO BE USED FOR FLIGHT PLANNING PURPOSES.
IDs:

KMDW - Chicago/Midway Intl, IL, US

Issued at 2320 UTC 26 Apr 2017
Updated at 0112 UTC 27 Apr 2017
Potential Impact None Slight Moderate High
Time0053Z 27/02Z 27/03Z 27/04Z 27/05Z 27/06Z 27/07Z 27/08Z 27/09Z 27/10Z 27/11Z 27/12Z 27/13Z 27/14Z>>
Type OBS PRVL PRVL PRVL PRVL PRVL PRVL PRVL PRVL PRVL PRVL PRVL PRVL PRVL
VIS 10 >6 6 6 5 5 5 4 4 4 4 4 4 4
CIG 170 50 35 35 11 11 11 8 8 8 8 8 8 8
Cover BKN BKN OVC OVC OVC OVC OVC OVC OVC OVC OVC OVC OVC OVC
FltCat VFR VFR VFR VFR MVFR MVFR MVFR IFR IFR IFR IFR IFR IFR IFR
WX -- VCSH -RA -RA RA BR RA BR RA BR RA BR RA BR RA BR RA BR RA BR RA BR RA BR
WDir 280 250 310 310 40 40 40 VRB VRB VRB VRB VRB VRB VRB
WSpd 8 12 8 8 6 6 6 6 6 6 6 6 6 6
WGst -- -- -- -- -- -- -- -- -- -- -- -- -- --

Raw TAF
KMDW 262320Z 2700/2724 25012KT P6SM VCSH BKN050
  FM270300 31008KT 6SM -RA SCT025 OVC035
  FM270500 04006KT 5SM RA BR BKN011 OVC025
  FM270800 VRB06KT 4SM RA BR OVC008
  FM271600 26014G21KT P6SM BKN015
  FM272300 25010G15KT P6SM BKN025


Raw METAR
KMDW 270053Z 28008KT 10SM FEW090 SCT110 BKN170 BKN250 20/14 A2946 RMK AO2 SLP969 T02000139 $
KMDW 262353Z 27005KT 10SM FEW050 SCT130 BKN250 21/14 A2943 RMK AO2 PRESFR SLP961 T02110139 10250 20211 58011 $
KMDW 262253Z 26010KT 10SM BKN055 OVC150 23/13 A2947 RMK AO2 SLP973 T02280133 $

METAR Board
Radar Display
Forecast Discussion

FOR SITUATIONAL AWARENESS. NOT TO BE USED FOR FLIGHT PLANNING PURPOSES.

Page loaded:  01:12 UTC  |   06:12 PM Pacific  |   07:12 PM Mountain  |   08:12 PM Central  |   09:12 PM Eastern

 

ADVISORIES

FORECASTS

FORECASTS

OBSERVATIONS

USER TOOLS

ABOUT US